• Join FlightAware (Why Join?)
  • Login
  • US Flag GB Flag 
16:34 EST


 

Airport Tracker/Info


-or-


 

Live Flight TrackerFlight Track Log ✈ UAL5915 ✈ 24-Apr-2013 ✈ KMEM - KORD

Flight Track Log - Related Links

Times and Time Zones

All times are in EDT time to prevent confusion due to time zone crossing. See the UAL5915 flight status page for this flight to view local times or setup timezone preferences in your user account.

Time Position Orientation Groundspeed Altitude Reporting Facility
EDT Latitude Longitude Course Direction KTS MPH feet Rate Location/Type
09:17 35.0500 -89.9667 345° North 140 161 1,000  Level KMEM
09:18 35.1000 -89.9833 345° North 212 244 3,000 2,040 Climbing KMEM
09:19 35.1667 -90.0000 348° North 244 281 5,300 2,400 Climbing KMEM
09:20 35.2500 -90.0167 351° North 271 312 8,000 2,280 Climbing KMEM
09:21 35.3167 -90.0167 360° North 276 318 10,100 1,560 Climbing KMEM
09:23 35.4658 -90.0281 356° North 343 395 12,100 1,380 Climbing Memphis Center
09:24 35.5533 -90.0331 357° North 350 403 13,600 1,620 Climbing Memphis Center
09:25 35.6494 -90.0403 357° North 350 403 15,400 1,800 Climbing Memphis Center
09:26 35.7433 -90.0475 356° North 343 395 17,200 1,560 Climbing Memphis Center
09:27 35.8433 -90.0575 355° North 349 402 18,600 1,440 Climbing Memphis Center
09:28 35.9436 -90.0697 354° North 355 409 20,100 1,440 Climbing Memphis Center
09:29 36.0436 -90.1003 346° North 361 415 21,500 1,260 Climbing Memphis Center
09:30 36.1606 -90.1383 345° North 373 429 22,700 1,140 Climbing Memphis Center
09:31 36.2689 -90.1742 345° North 384 442 23,800 1,080 Climbing Memphis Center
09:32 36.3836 -90.2100 346° North 405 466 24,900 1,080 Climbing Memphis Center
09:33 36.4983 -90.2486 345° North 411 473 26,000 1,140 Climbing Memphis Center
09:34 36.6131 -90.2872 345° North 417 480 27,200 1,260 Climbing Memphis Center
09:35 36.7278 -90.3233 346° North 417 480 28,600 1,380 Climbing Memphis Center
09:37 36.9494 -90.3878 347° North 412 474 31,500 1,500 Climbing Kansas City Center
09:38 37.0592 -90.4233 346° North 407 468 33,200 1,680 Climbing Kansas City Center
09:39 37.1650 -90.4578 345° North 397 457 35,000 1,320 Climbing Kansas City Center
09:40 37.2675 -90.4911 345° North 384 442 36,000 480 Climbing Kansas City Center
09:41 37.3781 -90.5267 346° North 395 455 36,000  Level Kansas City Center
09:42 37.5050 -90.5400 355° North 444 511 36,000  Level Kansas City Center
09:43 37.6400 -90.5419 359° North 475 547 36,000  Level Kansas City Center
09:44 37.8083 -90.5467 359° North 499 574 36,000  Level Kansas City Center
09:45 37.9458 -90.5483 359° North 497 572 36,000  Level Kansas City Center
09:46 38.0833 -90.5492 360° North 494 568 36,000  Level Kansas City Center
09:47 38.2203 -90.5514 359° North 491 565 36,000  Level Kansas City Center
09:48 38.3558 -90.5536 359° North 488 562 36,000  Level Kansas City Center
09:49 38.5158 -90.5564 359° North 485 558 36,000  Level Kansas City Center
09:50 38.6506 -90.5589 359° North 484 557 36,000  Level Kansas City Center
09:51 38.7864 -90.5614 359° North 485 558 36,000  Level Kansas City Center
09:52 38.9197 -90.5628 360° North 480 552 36,000 -60 Level Kansas City Center
09:53 39.0625 -90.5647 359° North 478 550 35,900 -540 Descending Kansas City Center
09:54 39.1978 -90.5661 360° North 479 551 35,000 -900 Descending Kansas City Center
09:55 39.3306 -90.5672 360° North 480 552 34,100 -960 Descending Kansas City Center
09:56 39.4600 -90.5572 North 476 548 33,100 -540 Descending Kansas City Center
09:57 39.5894 -90.4825 24° Northeast 497 572 33,000 -60 Descending Kansas City Center
09:58 39.7175 -90.4097 24° Northeast 501 577 33,000  Level Kansas City Center
09:59 39.8717 -90.3247 23° Northeast 501 577 33,000  Level Kansas City Center
10:01 40.0256 -90.2400 23° Northeast 502 578 33,000  Level Chicago Center
10:02 40.1539 -90.1664 24° Northeast 503 579 33,000  Level Chicago Center
10:03 40.3078 -90.0792 23° Northeast 502 578 33,000  Level Chicago Center
10:04 40.4372 -90.0058 23° Northeast 504 580 33,000  Level Chicago Center
10:05 40.5708 -89.9286 24° Northeast 504 580 33,000  Level Chicago Center
10:06 40.6975 -89.8556 24° Northeast 500 575 33,000 -1,140 Level Chicago Center
10:07 40.8278 -89.7792 24° Northeast 508 585 30,700 -2,340 Descending Chicago Center
10:08 40.9567 -89.7072 23° Northeast 506 582 28,200 -2,580 Descending Chicago Center
10:09 41.0928 -89.6272 24° Northeast 503 579 25,400 -2,100 Descending Chicago Center
10:10 41.1925 -89.5072 42° Northeast 486 559 23,900 -1,740 Descending Chicago Center
10:11 41.2558 -89.3533 61° Northeast 473 544 21,900 -2,520 Descending Chicago Center
10:12 41.3200 -89.1892 62° Northeast 451 519 18,700 -2,580 Descending Chicago Center
10:13 41.3739 -89.0536 62° Northeast 421 484 16,600 -2,280 Descending Chicago Center
10:14 41.4278 -88.9217 61° Northeast 408 470 14,000 -2,340 Descending Chicago Center
10:16 41.5167 -88.7000 62° Northeast 339 390 10,100 -1,980 Descending Chicago TRACON
10:16 41.5306 -88.6608 65° Northeast 343 395 10,000 -120 Descending Chicago Center
10:17 41.5750 -88.5458 63° Northeast 346 398 10,000  Level Chicago Center
10:18 41.6233 -88.4400 59° Northeast 336 387 10,100  Climbing Chicago Center
10:19 41.6825 -88.3394 52° Northeast 343 395 10,000 -60 Descending Chicago Center
10:20 41.7400 -88.2392 52° Northeast 340 391 10,000  Level Chicago Center
10:21 41.7967 -88.1422 52° Northeast 332 382 10,000  Level Chicago Center
10:22 41.8769 -88.0403 43° Northeast 332 382 10,000 -180 Level Chicago Center
10:23 41.9000 -88.0000 52° Northeast 281 323 9,800 -1,320 Descending Chicago TRACON
10:24 41.9667 -87.9333 37° Northeast 242 278 8,100 -1,440 Descending Chicago TRACON
10:25 42.0000 -87.8500 62° Northeast 281 323 7,000 -1,260 Descending Chicago TRACON
10:26 42.0333 -87.7833 56° Northeast 246 283 5,600 -1,500 Descending Chicago TRACON
10:27 42.0500 -87.6833 77° East 261 300 4,100 -780 Descending Chicago TRACON
10:28 42.0667 -87.5833 77° East 258 297 4,100 -420 Level Chicago TRACON
10:29 42.0167 -87.5333 143° Southeast 282 325 3,400 -900 Descending Chicago TRACON
10:30 41.9833 -87.5833 228° Southwest 221 254 2,500 -420 Descending Chicago TRACON
10:31 41.9833 -87.6667 270° West 200 230 2,600  Climbing Chicago TRACON
10:32 41.9833 -87.7333 270° West 174 200 2,600 -240 Level Chicago TRACON
10:33 41.9833 -87.8000 270° West 163 188 2,200 -600 Descending Chicago TRACON
10:34 41.9833 -87.8500 270° West 126 145 1,400 -840 Descending Chicago TRACON